sensor_id;sensor_type;location;lat;lon;timestamp;P1;durP1;ratioP1;P2;durP2;ratioP2
75887;SDS011;64562;55.662;37.300;2023-12-04T00:00:31;31.92;;;19.58;;
75887;SDS011;64562;55.662;37.300;2023-12-04T00:02:58;37.60;;;21.33;;
75887;SDS011;64562;55.662;37.300;2023-12-04T00:05:24;29.77;;;18.48;;
75887;SDS011;64562;55.662;37.300;2023-12-04T00:07:52;35.97;;;19.70;;
75887;SDS011;64562;55.662;37.300;2023-12-04T00:10:19;38.35;;;21.63;;
75887;SDS011;64562;55.662;37.300;2023-12-04T00:12:46;35.95;;;19.98;;
75887;SDS011;64562;55.662;37.300;2023-12-04T00:15:12;31.83;;;18.30;;
75887;SDS011;64562;55.662;37.300;2023-12-04T00:17:39;36.08;;;20.75;;
75887;SDS011;64562;55.662;37.300;2023-12-04T00:20:06;31.77;;;18.40;;
75887;SDS011;64562;55.662;37.300;2023-12-04T00:22:33;35.28;;;19.73;;
75887;SDS011;64562;55.662;37.300;2023-12-04T00:25:01;35.03;;;20.40;;
75887;SDS011;64562;55.662;37.300;2023-12-04T00:27:28;34.38;;;20.42;;
75887;SDS011;64562;55.662;37.300;2023-12-04T00:29:55;31.67;;;17.77;;
75887;SDS011;64562;55.662;37.300;2023-12-04T00:32:21;36.35;;;21.80;;
75887;SDS011;64562;55.662;37.300;2023-12-04T00:34:48;31.40;;;19.17;;
75887;SDS011;64562;55.662;37.300;2023-12-04T00:37:15;35.15;;;21.13;;
75887;SDS011;64562;55.662;37.300;2023-12-04T00:39:41;34.50;;;20.40;;
75887;SDS011;64562;55.662;37.300;2023-12-04T00:42:09;38.97;;;21.92;;
75887;SDS011;64562;55.662;37.300;2023-12-04T00:44:36;34.55;;;19.83;;
75887;SDS011;64562;55.662;37.300;2023-12-04T00:47:03;36.28;;;20.35;;
75887;SDS011;64562;55.662;37.300;2023-12-04T00:49:30;38.53;;;20.50;;
75887;SDS011;64562;55.662;37.300;2023-12-04T00:51:56;36.50;;;20.70;;
75887;SDS011;64562;55.662;37.300;2023-12-04T00:54:23;33.85;;;20.00;;
75887;SDS011;64562;55.662;37.300;2023-12-04T00:56:49;34.85;;;18.98;;
75887;SDS011;64562;55.662;37.300;2023-12-04T00:59:17;33.05;;;19.70;;
75887;SDS011;64562;55.662;37.300;2023-12-04T01:01:44;32.45;;;18.70;;
75887;SDS011;64562;55.662;37.300;2023-12-04T01:04:10;33.35;;;19.55;;
75887;SDS011;64562;55.662;37.300;2023-12-04T01:06:37;34.30;;;19.77;;
75887;SDS011;64562;55.662;37.300;2023-12-04T01:09:04;38.28;;;21.60;;
75887;SDS011;64562;55.662;37.300;2023-12-04T01:11:30;34.53;;;19.00;;
75887;SDS011;64562;55.662;37.300;2023-12-04T01:13:57;34.15;;;19.80;;
75887;SDS011;64562;55.662;37.300;2023-12-04T01:16:25;35.30;;;20.02;;
75887;SDS011;64562;55.662;37.300;2023-12-04T01:18:52;36.35;;;20.98;;
75887;SDS011;64562;55.662;37.300;2023-12-04T01:21:18;35.60;;;19.35;;
75887;SDS011;64562;55.662;37.300;2023-12-04T01:23:45;34.25;;;19.10;;
75887;SDS011;64562;55.662;37.300;2023-12-04T01:26:12;34.50;;;19.42;;
75887;SDS011;64562;55.662;37.300;2023-12-04T01:28:38;34.42;;;19.70;;
75887;SDS011;64562;55.662;37.300;2023-12-04T01:31:06;33.38;;;18.98;;
75887;SDS011;64562;55.662;37.300;2023-12-04T01:33:34;34.80;;;20.35;;
75887;SDS011;64562;55.662;37.300;2023-12-04T01:36:01;39.22;;;20.80;;
75887;SDS011;64562;55.662;37.300;2023-12-04T01:38:28;38.22;;;21.15;;
75887;SDS011;64562;55.662;37.300;2023-12-04T01:40:54;38.92;;;20.83;;
75887;SDS011;64562;55.662;37.300;2023-12-04T01:43:21;39.33;;;21.65;;
75887;SDS011;64562;55.662;37.300;2023-12-04T01:45:48;32.85;;;19.77;;
75887;SDS011;64562;55.662;37.300;2023-12-04T01:48:15;35.83;;;20.38;;
75887;SDS011;64562;55.662;37.300;2023-12-04T01:50:43;32.63;;;20.13;;
75887;SDS011;64562;55.662;37.300;2023-12-04T01:53:10;37.45;;;20.35;;
75887;SDS011;64562;55.662;37.300;2023-12-04T01:55:37;31.63;;;18.23;;
75887;SDS011;64562;55.662;37.300;2023-12-04T01:58:04;36.90;;;20.33;;
75887;SDS011;64562;55.662;37.300;2023-12-04T02:00:32;38.45;;;21.08;;
75887;SDS011;64562;55.662;37.300;2023-12-04T02:02:58;37.72;;;21.90;;
75887;SDS011;64562;55.662;37.300;2023-12-04T02:05:26;31.33;;;19.02;;
75887;SDS011;64562;55.662;37.300;2023-12-04T02:07:54;33.55;;;19.38;;
75887;SDS011;64562;55.662;37.300;2023-12-04T02:10:21;34.22;;;19.80;;
75887;SDS011;64562;55.662;37.300;2023-12-04T02:12:48;36.50;;;21.05;;
75887;SDS011;64562;55.662;37.300;2023-12-04T02:15:15;36.92;;;20.40;;
75887;SDS011;64562;55.662;37.300;2023-12-04T02:17:42;33.97;;;21.17;;
75887;SDS011;64562;55.662;37.300;2023-12-04T02:20:09;38.30;;;21.02;;
75887;SDS011;64562;55.662;37.300;2023-12-04T02:22:37;42.22;;;22.02;;
75887;SDS011;64562;55.662;37.300;2023-12-04T02:25:06;39.03;;;20.98;;
75887;SDS011;64562;55.662;37.300;2023-12-04T02:27:33;33.40;;;18.67;;
75887;SDS011;64562;55.662;37.300;2023-12-04T02:30:03;35.10;;;20.23;;
75887;SDS011;64562;55.662;37.300;2023-12-04T02:32:34;36.28;;;20.92;;
75887;SDS011;64562;55.662;37.300;2023-12-04T02:35:02;36.47;;;20.85;;
75887;SDS011;64562;55.662;37.300;2023-12-04T02:37:30;30.23;;;19.23;;
75887;SDS011;64562;55.662;37.300;2023-12-04T02:39:57;42.22;;;22.80;;
75887;SDS011;64562;55.662;37.300;2023-12-04T02:42:25;37.50;;;21.27;;
75887;SDS011;64562;55.662;37.300;2023-12-04T02:44:52;36.35;;;19.40;;
75887;SDS011;64562;55.662;37.300;2023-12-04T02:47:19;38.08;;;21.88;;
75887;SDS011;64562;55.662;37.300;2023-12-04T02:49:45;37.88;;;21.00;;
75887;SDS011;64562;55.662;37.300;2023-12-04T02:52:12;36.13;;;20.02;;
75887;SDS011;64562;55.662;37.300;2023-12-04T02:54:39;36.28;;;19.77;;
75887;SDS011;64562;55.662;37.300;2023-12-04T02:57:05;31.90;;;18.83;;
75887;SDS011;64562;55.662;37.300;2023-12-04T02:59:33;35.88;;;20.75;;
75887;SDS011;64562;55.662;37.300;2023-12-04T03:02:00;32.55;;;18.33;;
75887;SDS011;64562;55.662;37.300;2023-12-04T03:04:27;32.80;;;18.42;;
75887;SDS011;64562;55.662;37.300;2023-12-04T03:06:54;38.25;;;21.00;;
75887;SDS011;64562;55.662;37.300;2023-12-04T03:09:21;36.35;;;20.40;;
75887;SDS011;64562;55.662;37.300;2023-12-04T03:11:48;35.22;;;18.88;;
75887;SDS011;64562;55.662;37.300;2023-12-04T03:14:15;34.80;;;20.30;;
75887;SDS011;64562;55.662;37.300;2023-12-04T03:16:42;38.35;;;20.38;;
75887;SDS011;64562;55.662;37.300;2023-12-04T03:19:08;35.13;;;20.27;;
75887;SDS011;64562;55.662;37.300;2023-12-04T03:21:35;40.50;;;21.20;;
75887;SDS011;64562;55.662;37.300;2023-12-04T03:24:01;29.90;;;16.40;;
75887;SDS011;64562;55.662;37.300;2023-12-04T03:26:28;35.03;;;20.00;;
75887;SDS011;64562;55.662;37.300;2023-12-04T03:28:55;35.50;;;18.17;;
75887;SDS011;64562;55.662;37.300;2023-12-04T03:31:22;39.05;;;21.35;;
75887;SDS011;64562;55.662;37.300;2023-12-04T03:33:50;34.88;;;18.70;;
75887;SDS011;64562;55.662;37.300;2023-12-04T03:36:17;35.30;;;19.67;;
75887;SDS011;64562;55.662;37.300;2023-12-04T03:38:44;36.38;;;20.50;;
75887;SDS011;64562;55.662;37.300;2023-12-04T03:41:13;38.95;;;20.23;;
75887;SDS011;64562;55.662;37.300;2023-12-04T03:43:39;36.30;;;20.55;;
75887;SDS011;64562;55.662;37.300;2023-12-04T03:46:06;32.17;;;17.70;;
75887;SDS011;64562;55.662;37.300;2023-12-04T03:48:33;36.00;;;19.38;;
75887;SDS011;64562;55.662;37.300;2023-12-04T03:51:01;34.38;;;16.88;;
75887;SDS011;64562;55.662;37.300;2023-12-04T03:53:28;42.65;;;20.73;;
75887;SDS011;64562;55.662;37.300;2023-12-04T03:55:54;35.50;;;19.60;;
75887;SDS011;64562;55.662;37.300;2023-12-04T03:58:21;31.88;;;17.70;;
75887;SDS011;64562;55.662;37.300;2023-12-04T04:00:47;34.72;;;19.10;;
75887;SDS011;64562;55.662;37.300;2023-12-04T04:03:14;34.15;;;18.98;;
75887;SDS011;64562;55.662;37.300;2023-12-04T04:05:41;33.40;;;18.50;;
75887;SDS011;64562;55.662;37.300;2023-12-04T04:08:09;39.85;;;21.50;;
75887;SDS011;64562;55.662;37.300;2023-12-04T04:10:36;43.15;;;19.90;;
75887;SDS011;64562;55.662;37.300;2023-12-04T04:13:02;33.30;;;19.55;;
75887;SDS011;64562;55.662;37.300;2023-12-04T04:15:29;35.35;;;18.85;;
75887;SDS011;64562;55.662;37.300;2023-12-04T04:17:56;31.40;;;17.45;;
75887;SDS011;64562;55.662;37.300;2023-12-04T04:20:22;32.72;;;18.48;;
75887;SDS011;64562;55.662;37.300;2023-12-04T04:22:49;36.45;;;19.77;;
75887;SDS011;64562;55.662;37.300;2023-12-04T04:25:18;37.28;;;19.85;;
75887;SDS011;64562;55.662;37.300;2023-12-04T04:27:46;31.60;;;16.63;;
75887;SDS011;64562;55.662;37.300;2023-12-04T04:30:13;38.42;;;19.13;;
75887;SDS011;64562;55.662;37.300;2023-12-04T04:32:41;33.72;;;18.58;;
75887;SDS011;64562;55.662;37.300;2023-12-04T04:35:08;37.10;;;19.77;;
75887;SDS011;64562;55.662;37.300;2023-12-04T04:37:35;34.65;;;19.48;;
75887;SDS011;64562;55.662;37.300;2023-12-04T04:40:01;36.05;;;19.75;;
75887;SDS011;64562;55.662;37.300;2023-12-04T04:42:30;35.05;;;19.88;;
75887;SDS011;64562;55.662;37.300;2023-12-04T04:44:57;36.08;;;19.75;;
75887;SDS011;64562;55.662;37.300;2023-12-04T04:47:23;37.15;;;20.70;;
75887;SDS011;64562;55.662;37.300;2023-12-04T04:49:50;36.60;;;20.27;;
75887;SDS011;64562;55.662;37.300;2023-12-04T04:52:17;33.40;;;17.60;;
75887;SDS011;64562;55.662;37.300;2023-12-04T04:54:43;33.80;;;18.40;;
75887;SDS011;64562;55.662;37.300;2023-12-04T04:57:10;32.63;;;18.63;;
75887;SDS011;64562;55.662;37.300;2023-12-04T04:59:38;35.97;;;19.67;;
75887;SDS011;64562;55.662;37.300;2023-12-04T05:02:05;38.03;;;21.52;;
75887;SDS011;64562;55.662;37.300;2023-12-04T05:04:31;34.22;;;17.42;;
75887;SDS011;64562;55.662;37.300;2023-12-04T05:06:58;37.15;;;19.85;;
75887;SDS011;64562;55.662;37.300;2023-12-04T05:09:25;37.63;;;20.48;;
75887;SDS011;64562;55.662;37.300;2023-12-04T05:11:51;40.90;;;20.45;;
75887;SDS011;64562;55.662;37.300;2023-12-04T05:14:18;36.28;;;20.77;;
75887;SDS011;64562;55.662;37.300;2023-12-04T05:16:46;36.00;;;19.95;;
75887;SDS011;64562;55.662;37.300;2023-12-04T05:19:13;34.08;;;19.10;;
75887;SDS011;64562;55.662;37.300;2023-12-04T05:21:39;37.40;;;19.20;;
75887;SDS011;64562;55.662;37.300;2023-12-04T05:24:06;33.53;;;19.40;;
75887;SDS011;64562;55.662;37.300;2023-12-04T05:26:33;38.67;;;20.13;;
75887;SDS011;64562;55.662;37.300;2023-12-04T05:28:59;33.75;;;18.60;;
75887;SDS011;64562;55.662;37.300;2023-12-04T05:31:27;35.65;;;20.25;;
75887;SDS011;64562;55.662;37.300;2023-12-04T05:33:55;35.58;;;19.48;;
75887;SDS011;64562;55.662;37.300;2023-12-04T05:36:21;39.60;;;21.13;;
75887;SDS011;64562;55.662;37.300;2023-12-04T05:38:47;42.03;;;20.95;;
75887;SDS011;64562;55.662;37.300;2023-12-04T05:41:14;39.65;;;21.75;;
75887;SDS011;64562;55.662;37.300;2023-12-04T05:43:41;37.80;;;21.38;;
75887;SDS011;64562;55.662;37.300;2023-12-04T05:46:07;36.67;;;20.45;;
75887;SDS011;64562;55.662;37.300;2023-12-04T05:48:34;41.75;;;22.13;;
75887;SDS011;64562;55.662;37.300;2023-12-04T05:51:02;37.67;;;20.52;;
75887;SDS011;64562;55.662;37.300;2023-12-04T05:53:29;37.05;;;20.65;;
75887;SDS011;64562;55.662;37.300;2023-12-04T05:55:56;36.58;;;20.77;;
75887;SDS011;64562;55.662;37.300;2023-12-04T05:58:23;35.70;;;18.52;;
75887;SDS011;64562;55.662;37.300;2023-12-04T06:00:49;38.53;;;20.73;;
75887;SDS011;64562;55.662;37.300;2023-12-04T06:03:16;38.78;;;21.15;;
75887;SDS011;64562;55.662;37.300;2023-12-04T06:05:42;39.63;;;21.90;;
75887;SDS011;64562;55.662;37.300;2023-12-04T06:08:10;36.95;;;19.40;;
75887;SDS011;64562;55.662;37.300;2023-12-04T06:10:37;42.05;;;20.48;;
75887;SDS011;64562;55.662;37.300;2023-12-04T06:13:04;38.03;;;19.50;;
75887;SDS011;64562;55.662;37.300;2023-12-04T06:15:31;39.13;;;21.77;;
75887;SDS011;64562;55.662;37.300;2023-12-04T06:17:57;38.90;;;20.17;;
75887;SDS011;64562;55.662;37.300;2023-12-04T06:20:24;40.63;;;20.95;;
75887;SDS011;64562;55.662;37.300;2023-12-04T06:22:51;38.65;;;20.10;;
75887;SDS011;64562;55.662;37.300;2023-12-04T06:25:19;33.72;;;16.58;;
75887;SDS011;64562;55.662;37.300;2023-12-04T06:27:46;35.97;;;18.70;;
75887;SDS011;64562;55.662;37.300;2023-12-04T06:30:14;35.25;;;18.63;;
75887;SDS011;64562;55.662;37.300;2023-12-04T06:32:41;33.88;;;17.73;;
75887;SDS011;64562;55.662;37.300;2023-12-04T06:35:08;29.80;;;16.52;;
75887;SDS011;64562;55.662;37.300;2023-12-04T06:37:35;32.85;;;17.95;;
75887;SDS011;64562;55.662;37.300;2023-12-04T06:40:04;37.63;;;18.92;;
75887;SDS011;64562;55.662;37.300;2023-12-04T06:42:35;31.77;;;18.45;;
75887;SDS011;64562;55.662;37.300;2023-12-04T06:45:02;46.28;;;19.35;;
75887;SDS011;64562;55.662;37.300;2023-12-04T06:47:29;36.88;;;16.85;;
75887;SDS011;64562;55.662;37.300;2023-12-04T06:49:57;37.03;;;17.77;;
75887;SDS011;64562;55.662;37.300;2023-12-04T06:52:24;35.65;;;17.85;;
75887;SDS011;64562;55.662;37.300;2023-12-04T06:54:50;34.88;;;17.98;;
75887;SDS011;64562;55.662;37.300;2023-12-04T06:57:17;34.10;;;17.58;;
75887;SDS011;64562;55.662;37.300;2023-12-04T06:59:45;33.40;;;16.88;;
75887;SDS011;64562;55.662;37.300;2023-12-04T07:02:12;34.42;;;18.00;;
75887;SDS011;64562;55.662;37.300;2023-12-04T07:04:39;29.50;;;16.15;;
75887;SDS011;64562;55.662;37.300;2023-12-04T07:07:06;32.03;;;17.92;;
75887;SDS011;64562;55.662;37.300;2023-12-04T07:09:32;35.78;;;17.08;;
75887;SDS011;64562;55.662;37.300;2023-12-04T07:11:59;30.40;;;16.77;;
75887;SDS011;64562;55.662;37.300;2023-12-04T07:14:26;34.85;;;18.65;;
75887;SDS011;64562;55.662;37.300;2023-12-04T07:16:54;31.85;;;17.75;;
75887;SDS011;64562;55.662;37.300;2023-12-04T07:19:20;31.23;;;17.08;;
75887;SDS011;64562;55.662;37.300;2023-12-04T07:21:47;32.97;;;17.63;;
75887;SDS011;64562;55.662;37.300;2023-12-04T07:24:14;33.15;;;17.42;;
75887;SDS011;64562;55.662;37.300;2023-12-04T07:26:41;32.13;;;16.63;;
75887;SDS011;64562;55.662;37.300;2023-12-04T07:29:08;31.40;;;17.23;;
75887;SDS011;64562;55.662;37.300;2023-12-04T07:31:35;29.73;;;17.05;;
75887;SDS011;64562;55.662;37.300;2023-12-04T07:34:03;33.65;;;17.27;;
75887;SDS011;64562;55.662;37.300;2023-12-04T07:36:29;33.90;;;16.73;;
75887;SDS011;64562;55.662;37.300;2023-12-04T07:38:56;31.95;;;17.60;;
75887;SDS011;64562;55.662;37.300;2023-12-04T07:41:23;31.30;;;17.20;;
75887;SDS011;64562;55.662;37.300;2023-12-04T07:43:49;32.35;;;17.88;;
75887;SDS011;64562;55.662;37.300;2023-12-04T07:46:16;32.80;;;18.63;;
75887;SDS011;64562;55.662;37.300;2023-12-04T07:48:43;31.38;;;16.80;;
75887;SDS011;64562;55.662;37.300;2023-12-04T07:51:12;31.83;;;17.05;;
75887;SDS011;64562;55.662;37.300;2023-12-04T07:53:38;33.40;;;18.15;;
75887;SDS011;64562;55.662;37.300;2023-12-04T07:56:05;34.15;;;17.13;;
75887;SDS011;64562;55.662;37.300;2023-12-04T07:58:32;35.10;;;18.13;;
75887;SDS011;64562;55.662;37.300;2023-12-04T08:00:59;31.05;;;17.88;;
75887;SDS011;64562;55.662;37.300;2023-12-04T08:03:26;32.95;;;16.92;;
75887;SDS011;64562;55.662;37.300;2023-12-04T08:05:52;39.28;;;18.45;;
75887;SDS011;64562;55.662;37.300;2023-12-04T08:08:21;34.55;;;18.10;;
75887;SDS011;64562;55.662;37.300;2023-12-04T08:10:48;33.33;;;17.38;;
75887;SDS011;64562;55.662;37.300;2023-12-04T08:13:14;33.13;;;17.42;;
75887;SDS011;64562;55.662;37.300;2023-12-04T08:15:41;29.50;;;17.58;;
75887;SDS011;64562;55.662;37.300;2023-12-04T08:18:08;29.98;;;18.13;;
75887;SDS011;64562;55.662;37.300;2023-12-04T08:20:35;33.30;;;18.60;;
75887;SDS011;64562;55.662;37.300;2023-12-04T08:23:01;36.83;;;19.67;;
75887;SDS011;64562;55.662;37.300;2023-12-04T08:25:29;32.30;;;17.35;;
75887;SDS011;64562;55.662;37.300;2023-12-04T08:27:57;33.83;;;18.75;;
75887;SDS011;64562;55.662;37.300;2023-12-04T08:30:24;31.40;;;18.00;;
75887;SDS011;64562;55.662;37.300;2023-12-04T08:32:52;29.27;;;15.40;;
75887;SDS011;64562;55.662;37.300;2023-12-04T08:35:18;38.80;;;19.90;;
75887;SDS011;64562;55.662;37.300;2023-12-04T08:37:45;39.80;;;20.05;;
75887;SDS011;64562;55.662;37.300;2023-12-04T08:40:12;35.58;;;19.70;;
75887;SDS011;64562;55.662;37.300;2023-12-04T08:42:40;36.53;;;18.60;;
75887;SDS011;64562;55.662;37.300;2023-12-04T08:45:08;33.13;;;17.73;;
75887;SDS011;64562;55.662;37.300;2023-12-04T08:47:35;36.45;;;19.20;;
75887;SDS011;64562;55.662;37.300;2023-12-04T08:50:02;31.73;;;17.95;;
75887;SDS011;64562;55.662;37.300;2023-12-04T08:52:30;35.88;;;18.08;;
75887;SDS011;64562;55.662;37.300;2023-12-04T08:54:56;31.48;;;16.75;;
75887;SDS011;64562;55.662;37.300;2023-12-04T08:57:23;32.03;;;16.58;;
75887;SDS011;64562;55.662;37.300;2023-12-04T08:59:51;29.17;;;16.00;;
75887;SDS011;64562;55.662;37.300;2023-12-04T09:02:18;28.40;;;15.73;;
75887;SDS011;64562;55.662;37.300;2023-12-04T09:04:45;27.67;;;15.75;;
75887;SDS011;64562;55.662;37.300;2023-12-04T09:07:12;25.30;;;13.02;;
75887;SDS011;64562;55.662;37.300;2023-12-04T09:09:39;21.33;;;12.57;;
75887;SDS011;64562;55.662;37.300;2023-12-04T09:12:06;26.73;;;14.02;;
75887;SDS011;64562;55.662;37.300;2023-12-04T09:14:34;26.85;;;14.10;;
75887;SDS011;64562;55.662;37.300;2023-12-04T09:17:02;24.83;;;13.70;;
75887;SDS011;64562;55.662;37.300;2023-12-04T09:19:29;23.77;;;12.95;;
75887;SDS011;64562;55.662;37.300;2023-12-04T09:21:56;22.85;;;12.38;;
75887;SDS011;64562;55.662;37.300;2023-12-04T09:24:23;22.27;;;12.27;;
75887;SDS011;64562;55.662;37.300;2023-12-04T09:26:50;21.98;;;12.32;;
75887;SDS011;64562;55.662;37.300;2023-12-04T09:29:17;23.02;;;11.50;;
75887;SDS011;64562;55.662;37.300;2023-12-04T09:31:43;21.08;;;10.95;;
75887;SDS011;64562;55.662;37.300;2023-12-04T09:34:11;20.75;;;11.32;;
75887;SDS011;64562;55.662;37.300;2023-12-04T09:36:38;22.23;;;12.43;;
75887;SDS011;64562;55.662;37.300;2023-12-04T09:39:05;20.77;;;11.23;;
75887;SDS011;64562;55.662;37.300;2023-12-04T09:41:33;24.08;;;11.07;;
75887;SDS011;64562;55.662;37.300;2023-12-04T09:43:58;18.05;;;10.07;;
75887;SDS011;64562;55.662;37.300;2023-12-04T09:46:26;20.00;;;10.40;;
75887;SDS011;64562;55.662;37.300;2023-12-04T09:48:53;16.58;;;9.55;;
75887;SDS011;64562;55.662;37.300;2023-12-04T09:51:22;19.42;;;11.45;;
75887;SDS011;64562;55.662;37.300;2023-12-04T09:53:50;17.23;;;10.00;;
75887;SDS011;64562;55.662;37.300;2023-12-04T09:56:18;16.70;;;9.90;;
75887;SDS011;64562;55.662;37.300;2023-12-04T09:58:44;19.58;;;10.15;;
75887;SDS011;64562;55.662;37.300;2023-12-04T10:01:11;19.02;;;9.98;;
75887;SDS011;64562;55.662;37.300;2023-12-04T10:03:38;18.98;;;9.82;;
75887;SDS011;64562;55.662;37.300;2023-12-04T10:06:06;17.23;;;9.75;;
75887;SDS011;64562;55.662;37.300;2023-12-04T10:08:35;17.17;;;9.68;;
75887;SDS011;64562;55.662;37.300;2023-12-04T10:11:02;17.85;;;9.25;;
75887;SDS011;64562;55.662;37.300;2023-12-04T10:13:29;17.50;;;9.50;;
75887;SDS011;64562;55.662;37.300;2023-12-04T10:15:56;16.60;;;9.07;;
75887;SDS011;64562;55.662;37.300;2023-12-04T10:18:26;16.15;;;8.52;;
75887;SDS011;64562;55.662;37.300;2023-12-04T10:20:52;18.45;;;8.63;;
75887;SDS011;64562;55.662;37.300;2023-12-04T10:23:19;17.42;;;8.55;;
75887;SDS011;64562;55.662;37.300;2023-12-04T10:25:47;17.65;;;8.93;;
75887;SDS011;64562;55.662;37.300;2023-12-04T10:28:15;14.15;;;8.27;;
75887;SDS011;64562;55.662;37.300;2023-12-04T10:30:41;15.63;;;7.70;;
75887;SDS011;64562;55.662;37.300;2023-12-04T10:33:09;16.60;;;7.90;;
75887;SDS011;64562;55.662;37.300;2023-12-04T10:35:36;14.35;;;8.30;;
75887;SDS011;64562;55.662;37.300;2023-12-04T10:38:03;14.02;;;8.13;;
75887;SDS011;64562;55.662;37.300;2023-12-04T10:40:30;18.92;;;7.75;;
75887;SDS011;64562;55.662;37.300;2023-12-04T10:43:11;14.32;;;8.07;;
75887;SDS011;64562;55.662;37.300;2023-12-04T10:45:39;16.20;;;7.25;;
75887;SDS011;64562;55.662;37.300;2023-12-04T10:48:06;13.25;;;7.50;;
75887;SDS011;64562;55.662;37.300;2023-12-04T10:50:34;13.00;;;7.82;;
75887;SDS011;64562;55.662;37.300;2023-12-04T10:53:01;14.82;;;8.23;;
75887;SDS011;64562;55.662;37.300;2023-12-04T10:55:29;13.65;;;7.32;;
75887;SDS011;64562;55.662;37.300;2023-12-04T10:57:55;12.80;;;7.75;;
75887;SDS011;64562;55.662;37.300;2023-12-04T11:00:24;13.50;;;8.10;;
75887;SDS011;64562;55.662;37.300;2023-12-04T11:02:51;12.15;;;6.63;;
75887;SDS011;64562;55.662;37.300;2023-12-04T11:05:20;15.18;;;7.05;;
75887;SDS011;64562;55.662;37.300;2023-12-04T11:07:52;11.23;;;6.78;;
75887;SDS011;64562;55.662;37.300;2023-12-04T11:10:20;14.48;;;7.22;;
75887;SDS011;64562;55.662;37.300;2023-12-04T11:12:47;14.82;;;7.13;;
75887;SDS011;64562;55.662;37.300;2023-12-04T11:15:19;13.65;;;7.20;;
75887;SDS011;64562;55.662;37.300;2023-12-04T11:17:51;12.57;;;7.13;;
75887;SDS011;64562;55.662;37.300;2023-12-04T11:20:18;13.05;;;6.20;;
75887;SDS011;64562;55.662;37.300;2023-12-04T11:22:47;12.65;;;7.13;;
75887;SDS011;64562;55.662;37.300;2023-12-04T11:25:15;12.00;;;6.72;;
75887;SDS011;64562;55.662;37.300;2023-12-04T11:27:41;14.07;;;7.22;;
75887;SDS011;64562;55.662;37.300;2023-12-04T11:30:09;13.23;;;7.38;;
75887;SDS011;64562;55.662;37.300;2023-12-04T11:32:43;12.98;;;6.55;;
75887;SDS011;64562;55.662;37.300;2023-12-04T11:35:14;14.30;;;6.50;;
75887;SDS011;64562;55.662;37.300;2023-12-04T11:37:43;10.73;;;6.72;;
75887;SDS011;64562;55.662;37.300;2023-12-04T11:40:11;12.23;;;6.57;;
75887;SDS011;64562;55.662;37.300;2023-12-04T11:42:38;10.45;;;5.85;;
75887;SDS011;64562;55.662;37.300;2023-12-04T11:45:05;13.18;;;6.60;;
75887;SDS011;64562;55.662;37.300;2023-12-04T11:47:41;12.18;;;6.40;;
75887;SDS011;64562;55.662;37.300;2023-12-04T11:50:16;15.02;;;6.55;;
75887;SDS011;64562;55.662;37.300;2023-12-04T11:52:42;9.82;;;5.85;;
75887;SDS011;64562;55.662;37.300;2023-12-04T11:55:09;10.95;;;6.35;;
75887;SDS011;64562;55.662;37.300;2023-12-04T11:57:36;10.52;;;5.68;;
75887;SDS011;64562;55.662;37.300;2023-12-04T12:00:13;8.68;;;5.20;;
75887;SDS011;64562;55.662;37.300;2023-12-04T12:02:46;10.52;;;5.68;;
75887;SDS011;64562;55.662;37.300;2023-12-04T12:05:13;11.75;;;5.70;;
75887;SDS011;64562;55.662;37.300;2023-12-04T12:07:41;9.30;;;5.95;;
75887;SDS011;64562;55.662;37.300;2023-12-04T12:10:08;10.52;;;5.68;;
75887;SDS011;64562;55.662;37.300;2023-12-04T12:12:36;10.25;;;5.93;;
75887;SDS011;64562;55.662;37.300;2023-12-04T12:15:03;8.13;;;5.30;;
75887;SDS011;64562;55.662;37.300;2023-12-04T12:17:30;13.02;;;5.45;;
75887;SDS011;64562;55.662;37.300;2023-12-04T12:19:57;10.15;;;4.95;;
75887;SDS011;64562;55.662;37.300;2023-12-04T12:22:23;10.32;;;5.53;;
75887;SDS011;64562;55.662;37.300;2023-12-04T12:24:52;9.52;;;5.32;;
75887;SDS011;64562;55.662;37.300;2023-12-04T12:27:18;12.32;;;5.68;;
75887;SDS011;64562;55.662;37.300;2023-12-04T12:29:45;10.00;;;5.43;;
75887;SDS011;64562;55.662;37.300;2023-12-04T12:32:12;10.25;;;4.80;;
75887;SDS011;64562;55.662;37.300;2023-12-04T12:34:38;8.77;;;4.75;;
75887;SDS011;64562;55.662;37.300;2023-12-04T12:37:06;7.70;;;4.53;;
75887;SDS011;64562;55.662;37.300;2023-12-04T12:39:33;8.25;;;4.63;;
75887;SDS011;64562;55.662;37.300;2023-12-04T12:42:01;11.23;;;5.25;;
75887;SDS011;64562;55.662;37.300;2023-12-04T12:44:36;8.55;;;4.60;;
75887;SDS011;64562;55.662;37.300;2023-12-04T12:47:04;8.80;;;4.68;;
75887;SDS011;64562;55.662;37.300;2023-12-04T12:49:31;11.80;;;4.82;;
75887;SDS011;64562;55.662;37.300;2023-12-04T12:51:59;9.50;;;5.32;;
75887;SDS011;64562;55.662;37.300;2023-12-04T12:54:26;9.73;;;5.30;;
75887;SDS011;64562;55.662;37.300;2023-12-04T12:56:54;9.23;;;4.88;;
75887;SDS011;64562;55.662;37.300;2023-12-04T12:59:22;10.00;;;4.75;;
75887;SDS011;64562;55.662;37.300;2023-12-04T13:01:48;8.20;;;4.53;;
75887;SDS011;64562;55.662;37.300;2023-12-04T13:04:15;9.30;;;5.03;;
75887;SDS011;64562;55.662;37.300;2023-12-04T13:06:42;8.95;;;4.68;;
75887;SDS011;64562;55.662;37.300;2023-12-04T13:09:09;8.98;;;5.03;;
75887;SDS011;64562;55.662;37.300;2023-12-04T13:11:42;10.40;;;5.03;;
75887;SDS011;64562;55.662;37.300;2023-12-04T13:14:09;8.70;;;4.88;;
75887;SDS011;64562;55.662;37.300;2023-12-04T13:16:37;9.85;;;5.00;;
75887;SDS011;64562;55.662;37.300;2023-12-04T13:19:04;9.07;;;4.80;;
75887;SDS011;64562;55.662;37.300;2023-12-04T13:21:31;9.80;;;4.57;;
75887;SDS011;64562;55.662;37.300;2023-12-04T13:23:58;8.90;;;4.80;;
75887;SDS011;64562;55.662;37.300;2023-12-04T13:26:25;7.90;;;3.95;;
75887;SDS011;64562;55.662;37.300;2023-12-04T13:28:51;8.88;;;4.50;;
75887;SDS011;64562;55.662;37.300;2023-12-04T13:31:18;8.63;;;4.32;;
75887;SDS011;64562;55.662;37.300;2023-12-04T13:33:47;9.43;;;4.20;;
75887;SDS011;64562;55.662;37.300;2023-12-04T13:36:14;7.70;;;4.40;;
75887;SDS011;64562;55.662;37.300;2023-12-04T13:38:40;7.32;;;3.92;;
75887;SDS011;64562;55.662;37.300;2023-12-04T13:41:07;6.32;;;4.00;;
75887;SDS011;64562;55.662;37.300;2023-12-04T13:44:05;8.38;;;4.60;;
75887;SDS011;64562;55.662;37.300;2023-12-04T13:46:39;10.50;;;4.15;;
75887;SDS011;64562;55.662;37.300;2023-12-04T13:49:05;7.78;;;3.83;;
75887;SDS011;64562;55.662;37.300;2023-12-04T13:51:32;6.78;;;3.53;;
75887;SDS011;64562;55.662;37.300;2023-12-04T13:53:59;9.05;;;4.20;;
75887;SDS011;64562;55.662;37.300;2023-12-04T13:56:41;6.43;;;3.67;;
75887;SDS011;64562;55.662;37.300;2023-12-04T13:59:17;9.45;;;4.30;;
75887;SDS011;64562;55.662;37.300;2023-12-04T14:01:46;8.88;;;4.47;;
75887;SDS011;64562;55.662;37.300;2023-12-04T14:04:14;6.85;;;3.78;;
75887;SDS011;64562;55.662;37.300;2023-12-04T14:06:41;6.35;;;3.63;;
75887;SDS011;64562;55.662;37.300;2023-12-04T14:09:08;7.85;;;3.03;;
75887;SDS011;64562;55.662;37.300;2023-12-04T14:11:39;6.57;;;3.53;;
75887;SDS011;64562;55.662;37.300;2023-12-04T14:14:06;7.15;;;3.30;;